Buoy 41609

sailwx.info

Track history (hours):
 
Tides and Currents Weather Stations Pressure Air Temp Water Temp Dewpoint Dewpoint Depression Visibility Wind Speed Wind Dir Waves Ship Positions

Drifting buoy 41609

Last reported at 2015-Mar-29 20:00 UTC. Time now 2015-Mar-29 22:27 UTC.
Position N 41°52' W 051°48'.

Date/timePositionNaut miles runAvg speedWind from/ knotsBaromVisibWave heightAir tempDewpointWater temp
2015-Mar-29 20:00N 41°52' W 051°48'2 2.4
2015-Mar-29 19:00N 41°54' W 051°48'0 0.0
2015-Mar-29 18:00N 41°54' W 051°48'2 2.4
2015-Mar-29 17:00N 41°56' W 051°50'1 0.2
2015-Mar-29 13:00N 41°56' W 051°52'0 0.0
2015-Mar-29 11:00N 41°56' W 051°52'5 2.3
2015-Mar-29 09:00N 41°58' W 051°57'0 0.0
2015-Mar-29 07:00N 41°58' W 051°57'0 0.0
2015-Mar-29 06:00N 41°58' W 051°57'0 0.0
2015-Mar-29 05:00N 41°58' W 051°57'0 0.0
2015-Mar-29 01:00N 41°58' W 051°57'1 1.0
2015-Mar-29 00:00N 41°57' W 051°59'1 0.5
2015-Mar-28 22:00N 41°57' W 052°00'0 0.2
2015-Mar-28 20:00N 41°57' W 052°00'1 0.7
2015-Mar-28 19:00N 41°57' W 052°01'4 1.2
2015-Mar-28 16:00N 41°59' W 052°05'0 0.0
2015-Mar-28 15:00N 41°59' W 052°05'1 0.9
2015-Mar-28 14:00N 41°59' W 052°07'5 0.9
2015-Mar-28 09:00N 41°57' W 052°12'0 0.0
2015-Mar-28 08:00N 41°57' W 052°12'1 1.1
2015-Mar-28 07:00N 41°56' W 052°13'2 2.4
2015-Mar-28 06:00N 41°55' W 052°16'1 0.2
2015-Mar-28 00:00N 41°55' W 052°17'0 0.0
2015-Mar-27 23:00N 41°55' W 052°17'1 0.5
2015-Mar-27 22:00N 41°55' W 052°18'0 0.3
2015-Mar-27 21:00N 41°54' W 052°18'1 0.7
2015-Mar-27 19:00N 41°54' W 052°20'0 0.0
2015-Mar-27 18:00N 41°54' W 052°20'1 1.1
2015-Mar-27 17:00N 41°54' W 052°21'0 0.0
2015-Mar-27 16:00N 41°54' W 052°21'1 0.4
2015-Mar-27 13:00N 41°53' W 052°22'1 0.3
2015-Mar-27 10:00N 41°52' W 052°23'1 0.6
2015-Mar-27 09:00N 41°52' W 052°22'1 0.8
2015-Mar-27 08:00N 41°52' W 052°23'0 0.0
2015-Mar-27 06:00N 41°52' W 052°23'1 0.2
2015-Mar-27 00:00N 41°52' W 052°25'1 0.6
2015-Mar-26 22:00N 41°52' W 052°27'3 0.4
2015-Mar-26 14:00N 41°50' W 052°23'0 0.0
2015-Mar-26 08:00N 41°50' W 052°24'2 0.3
2015-Mar-26 00:00N 41°49' W 052°26'1 0.2
2015-Mar-25 19:00N 41°50' W 052°26'0 0.0
2015-Mar-25 18:00N 41°50' W 052°26'1 0.5
2015-Mar-25 16:00N 41°51' W 052°27'1 0.1
2015-Mar-25 10:00N 41°51' W 052°26'0 0.4
2015-Mar-25 09:00N 41°51' W 052°26'0 0.0
2015-Mar-25 08:00N 41°51' W 052°26'1 0.5
2015-Mar-25 07:00N 41°51' W 052°27'2 1.1
2015-Mar-25 05:00N 41°53' W 052°26'0 0.0
2015-Mar-25 04:00N 41°53' W 052°26'0 0.0
2015-Mar-25 01:00N 41°53' W 052°26'1 1.4
2015-Mar-25 00:00N 41°54' W 052°24'0 0.1
2015-Mar-24 21:00N 41°54' W 052°24'2 0.4
2015-Mar-24 16:00N 41°53' W 052°26'3 0.9
2015-Mar-24 13:00N 41°53' W 052°29'0 0.0
2015-Mar-24 11:00N 41°53' W 052°29'1 0.6
2015-Mar-24 10:00N 41°53' W 052°29'1 0.4
2015-Mar-24 07:00N 41°54' W 052°30'4 0.6
2015-Mar-24 00:00N 41°59' W 052°30'2 0.4
2015-Mar-23 20:00N 41°60' W 052°32'3 1.7
2015-Mar-23 18:00N 42°03' W 052°35'0 0.0
2015-Mar-23 17:00N 42°03' W 052°35'3 0.4
2015-Mar-23 10:00N 42°04' W 052°38'1 0.8
2015-Mar-23 09:00N 42°04' W 052°39'5 1.2
2015-Mar-23 05:00N 42°03' W 052°46'0 0.0
2015-Mar-23 02:00N 42°03' W 052°46'1 0.9
2015-Mar-23 01:00N 42°03' W 052°47'4 0.8
2015-Mar-22 20:00N 42°03' W 052°52'2 2.2
2015-Mar-22 19:00N 42°03' W 052°49'8 0.4
2015-Mar-21 22:00N 41°56' W 052°52'0 0.0
2015-Mar-21 21:00N 41°56' W 052°52'2 0.2
2015-Mar-21 13:00N 41°57' W 052°54'0 0.1
2015-Mar-21 09:00N 41°57' W 052°53'0 0.3
2015-Mar-21 08:00N 41°57' W 052°54'1 0.4
2015-Mar-21 06:00N 41°57' W 052°55'1 1.2
2015-Mar-21 05:00N 41°59' W 052°55'2 0.4
2015-Mar-21 00:00N 42°00' W 052°57'2 0.3
2015-Mar-20 18:00N 42°01' W 052°59'8 0.9
2015-Mar-20 09:00N 42°05' W 053°08'0 0.0
2015-Mar-20 06:00N 42°05' W 053°08'0 0.0
2015-Mar-20 05:00N 42°05' W 053°08'3 0.4
2015-Mar-19 20:00N 42°05' W 053°12'  
Track history (hours):
 
Tides and Currents Weather Stations Pressure Air Temp Water Temp Dewpoint Dewpoint Depression Visibility Wind Speed Wind Dir Waves Ship Positions

Drifting buoy 41609

Last reported at 2015-Mar-29 20:00 UTC. Time now 2015-Mar-29 22:27 UTC.
Position N 41°52' W 051°48'.

Date/timePositionNaut miles runAvg speedWind from/ knotsBaromVisibWave heightAir tempDewpointWater temp
2015-Mar-29 20:00N 41°52' W 051°48'2 2.4
2015-Mar-29 19:00N 41°54' W 051°48'0 0.0
2015-Mar-29 18:00N 41°54' W 051°48'2 2.4
2015-Mar-29 17:00N 41°56' W 051°50'1 0.2
2015-Mar-29 13:00N 41°56' W 051°52'0 0.0
2015-Mar-29 11:00N 41°56' W 051°52'5 2.3
2015-Mar-29 09:00N 41°58' W 051°57'0 0.0
2015-Mar-29 07:00N 41°58' W 051°57'0 0.0
2015-Mar-29 06:00N 41°58' W 051°57'0 0.0
2015-Mar-29 05:00N 41°58' W 051°57'0 0.0
2015-Mar-29 01:00N 41°58' W 051°57'1 1.0
2015-Mar-29 00:00N 41°57' W 051°59'1 0.5
2015-Mar-28 22:00N 41°57' W 052°00'0 0.2
2015-Mar-28 20:00N 41°57' W 052°00'1 0.7
2015-Mar-28 19:00N 41°57' W 052°01'4 1.2
2015-Mar-28 16:00N 41°59' W 052°05'0 0.0
2015-Mar-28 15:00N 41°59' W 052°05'1 0.9
2015-Mar-28 14:00N 41°59' W 052°07'5 0.9
2015-Mar-28 09:00N 41°57' W 052°12'0 0.0
2015-Mar-28 08:00N 41°57' W 052°12'1 1.1
2015-Mar-28 07:00N 41°56' W 052°13'2 2.4
2015-Mar-28 06:00N 41°55' W 052°16'1 0.2
2015-Mar-28 00:00N 41°55' W 052°17'0 0.0
2015-Mar-27 23:00N 41°55' W 052°17'1 0.5
2015-Mar-27 22:00N 41°55' W 052°18'0 0.3
2015-Mar-27 21:00N 41°54' W 052°18'1 0.7
2015-Mar-27 19:00N 41°54' W 052°20'0 0.0
2015-Mar-27 18:00N 41°54' W 052°20'1 1.1
2015-Mar-27 17:00N 41°54' W 052°21'0 0.0
2015-Mar-27 16:00N 41°54' W 052°21'1 0.4
2015-Mar-27 13:00N 41°53' W 052°22'1 0.3
2015-Mar-27 10:00N 41°52' W 052°23'1 0.6
2015-Mar-27 09:00N 41°52' W 052°22'1 0.8
2015-Mar-27 08:00N 41°52' W 052°23'0 0.0
2015-Mar-27 06:00N 41°52' W 052°23'1 0.2
2015-Mar-27 00:00N 41°52' W 052°25'1 0.6
2015-Mar-26 22:00N 41°52' W 052°27'3 0.4
2015-Mar-26 14:00N 41°50' W 052°23'0 0.0
2015-Mar-26 08:00N 41°50' W 052°24'2 0.3
2015-Mar-26 00:00N 41°49' W 052°26'1 0.2
2015-Mar-25 19:00N 41°50' W 052°26'0 0.0
2015-Mar-25 18:00N 41°50' W 052°26'1 0.5
2015-Mar-25 16:00N 41°51' W 052°27'1 0.1
2015-Mar-25 10:00N 41°51' W 052°26'0 0.4
2015-Mar-25 09:00N 41°51' W 052°26'0 0.0
2015-Mar-25 08:00N 41°51' W 052°26'1 0.5
2015-Mar-25 07:00N 41°51' W 052°27'2 1.1
2015-Mar-25 05:00N 41°53' W 052°26'0 0.0
2015-Mar-25 04:00N 41°53' W 052°26'0 0.0
2015-Mar-25 01:00N 41°53' W 052°26'1 1.4
2015-Mar-25 00:00N 41°54' W 052°24'0 0.1
2015-Mar-24 21:00N 41°54' W 052°24'2 0.4
2015-Mar-24 16:00N 41°53' W 052°26'3 0.9
2015-Mar-24 13:00N 41°53' W 052°29'0 0.0
2015-Mar-24 11:00N 41°53' W 052°29'1 0.6
2015-Mar-24 10:00N 41°53' W 052°29'1 0.4
2015-Mar-24 07:00N 41°54' W 052°30'4 0.6
2015-Mar-24 00:00N 41°59' W 052°30'2 0.4
2015-Mar-23 20:00N 41°60' W 052°32'3 1.7
2015-Mar-23 18:00N 42°03' W 052°35'0 0.0
2015-Mar-23 17:00N 42°03' W 052°35'3 0.4
2015-Mar-23 10:00N 42°04' W 052°38'1 0.8
2015-Mar-23 09:00N 42°04' W 052°39'5 1.2
2015-Mar-23 05:00N 42°03' W 052°46'0 0.0
2015-Mar-23 02:00N 42°03' W 052°46'1 0.9
2015-Mar-23 01:00N 42°03' W 052°47'4 0.8
2015-Mar-22 20:00N 42°03' W 052°52'2 2.2
2015-Mar-22 19:00N 42°03' W 052°49'8 0.4
2015-Mar-21 22:00N 41°56' W 052°52'0 0.0
2015-Mar-21 21:00N 41°56' W 052°52'2 0.2
2015-Mar-21 13:00N 41°57' W 052°54'0 0.1
2015-Mar-21 09:00N 41°57' W 052°53'0 0.3
2015-Mar-21 08:00N 41°57' W 052°54'1 0.4
2015-Mar-21 06:00N 41°57' W 052°55'1 1.2
2015-Mar-21 05:00N 41°59' W 052°55'2 0.4
2015-Mar-21 00:00N 42°00' W 052°57'2 0.3
2015-Mar-20 18:00N 42°01' W 052°59'8 0.9
2015-Mar-20 09:00N 42°05' W 053°08'0 0.0
2015-Mar-20 06:00N 42°05' W 053°08'0 0.0
2015-Mar-20 05:00N 42°05' W 053°08'3 0.4
2015-Mar-19 20:00N 42°05' W 053°12'  

Dump ship's entire track history